sensor_id;sensor_type;location;lat;lon;timestamp;temperature;humidity
37356;DHT22;48747;50.250;18.848;2022-11-20T00:01:33;-5.40;99.90
37356;DHT22;48747;50.250;18.848;2022-11-20T00:03:37;-5.40;99.90
37356;DHT22;48747;50.250;18.848;2022-11-20T00:05:41;-5.30;99.90
37356;DHT22;48747;50.250;18.848;2022-11-20T00:07:44;-5.40;99.90
37356;DHT22;48747;50.250;18.848;2022-11-20T00:09:47;-5.50;99.90
37356;DHT22;48747;50.250;18.848;2022-11-20T00:11:50;-5.50;99.90
37356;DHT22;48747;50.250;18.848;2022-11-20T00:13:55;-5.50;99.90
37356;DHT22;48747;50.250;18.848;2022-11-20T00:16:01;-5.50;99.90
37356;DHT22;48747;50.250;18.848;2022-11-20T00:18:06;-5.30;99.90
37356;DHT22;48747;50.250;18.848;2022-11-20T00:20:10;-5.10;99.90
37356;DHT22;48747;50.250;18.848;2022-11-20T00:22:14;-4.90;99.90
37356;DHT22;48747;50.250;18.848;2022-11-20T00:24:17;-4.80;99.90
37356;DHT22;48747;50.250;18.848;2022-11-20T00:26:22;-4.70;99.90
37356;DHT22;48747;50.250;18.848;2022-11-20T00:28:25;-4.60;99.90
37356;DHT22;48747;50.250;18.848;2022-11-20T00:30:28;-4.60;99.90
37356;DHT22;48747;50.250;18.848;2022-11-20T00:32:31;-4.60;99.90
37356;DHT22;48747;50.250;18.848;2022-11-20T00:34:34;-4.60;99.90
37356;DHT22;48747;50.250;18.848;2022-11-20T00:36:37;-4.60;99.90
37356;DHT22;48747;50.250;18.848;2022-11-20T00:38:40;-4.60;99.90
37356;DHT22;48747;50.250;18.848;2022-11-20T00:40:44;-4.50;99.90
37356;DHT22;48747;50.250;18.848;2022-11-20T00:42:47;-4.50;99.90
37356;DHT22;48747;50.250;18.848;2022-11-20T00:44:50;-4.50;99.90
37356;DHT22;48747;50.250;18.848;2022-11-20T00:46:53;-4.40;99.90
37356;DHT22;48747;50.250;18.848;2022-11-20T00:48:56;-4.40;99.90
37356;DHT22;48747;50.250;18.848;2022-11-20T00:50:59;-4.40;99.90
37356;DHT22;48747;50.250;18.848;2022-11-20T00:53:02;-4.40;99.90
37356;DHT22;48747;50.250;18.848;2022-11-20T00:55:06;-4.30;99.90
37356;DHT22;48747;50.250;18.848;2022-11-20T00:57:09;-4.30;99.90
37356;DHT22;48747;50.250;18.848;2022-11-20T00:59:12;-4.30;99.90
37356;DHT22;48747;50.250;18.848;2022-11-20T01:01:22;-4.30;99.90
37356;DHT22;48747;50.250;18.848;2022-11-20T01:03:21;-4.30;99.90
37356;DHT22;48747;50.250;18.848;2022-11-20T01:05:24;-4.20;99.90
37356;DHT22;48747;50.250;18.848;2022-11-20T01:07:27;-4.20;99.90
37356;DHT22;48747;50.250;18.848;2022-11-20T01:09:30;-4.20;99.90
37356;DHT22;48747;50.250;18.848;2022-11-20T01:11:35;-4.20;99.90
37356;DHT22;48747;50.250;18.848;2022-11-20T01:13:39;-4.20;99.90
37356;DHT22;48747;50.250;18.848;2022-11-20T01:15:43;-4.20;99.90
37356;DHT22;48747;50.250;18.848;2022-11-20T01:17:46;-4.30;99.90
37356;DHT22;48747;50.250;18.848;2022-11-20T01:19:52;-4.30;99.90
37356;DHT22;48747;50.250;18.848;2022-11-20T01:21:59;-4.40;99.90
37356;DHT22;48747;50.250;18.848;2022-11-20T01:24:00;-4.30;99.90
37356;DHT22;48747;50.250;18.848;2022-11-20T01:26:05;-4.30;99.90
37356;DHT22;48747;50.250;18.848;2022-11-20T01:28:08;-4.30;99.90
37356;DHT22;48747;50.250;18.848;2022-11-20T01:30:11;-4.20;99.90
37356;DHT22;48747;50.250;18.848;2022-11-20T01:32:14;-4.20;99.90
37356;DHT22;48747;50.250;18.848;2022-11-20T01:34:19;-4.20;99.90
37356;DHT22;48747;50.250;18.848;2022-11-20T01:36:25;-4.20;99.90
37356;DHT22;48747;50.250;18.848;2022-11-20T01:38:29;-4.20;99.90
37356;DHT22;48747;50.250;18.848;2022-11-20T01:40:32;-4.30;99.90
37356;DHT22;48747;50.250;18.848;2022-11-20T01:42:35;-4.20;99.90
37356;DHT22;48747;50.250;18.848;2022-11-20T01:44:58;-4.20;99.90
37356;DHT22;48747;50.250;18.848;2022-11-20T01:47:04;-4.30;99.90
37356;DHT22;48747;50.250;18.848;2022-11-20T01:49:29;-4.20;99.90
37356;DHT22;48747;50.250;18.848;2022-11-20T01:51:45;-4.20;99.90
37356;DHT22;48747;50.250;18.848;2022-11-20T01:53:43;-4.20;99.90
37356;DHT22;48747;50.250;18.848;2022-11-20T01:55:49;-4.30;99.90
37356;DHT22;48747;50.250;18.848;2022-11-20T01:57:53;-4.30;99.90
37356;DHT22;48747;50.250;18.848;2022-11-20T01:59:59;-4.20;99.90
37356;DHT22;48747;50.250;18.848;2022-11-20T02:02:02;-4.20;99.90
37356;DHT22;48747;50.250;18.848;2022-11-20T02:04:06;-4.30;99.90
37356;DHT22;48747;50.250;18.848;2022-11-20T02:06:24;-4.30;99.90
37356;DHT22;48747;50.250;18.848;2022-11-20T02:08:28;-4.30;99.90
37356;DHT22;48747;50.250;18.848;2022-11-20T02:10:32;-4.30;99.90
37356;DHT22;48747;50.250;18.848;2022-11-20T02:12:35;-4.30;99.90
37356;DHT22;48747;50.250;18.848;2022-11-20T02:14:57;-4.40;99.90
37356;DHT22;48747;50.250;18.848;2022-11-20T02:17:08;-4.40;99.90
37356;DHT22;48747;50.250;18.848;2022-11-20T02:19:07;-4.40;99.90
37356;DHT22;48747;50.250;18.848;2022-11-20T02:21:14;-4.30;99.90
37356;DHT22;48747;50.250;18.848;2022-11-20T02:24:18;-4.30;99.90
37356;DHT22;48747;50.250;18.848;2022-11-20T02:25:43;-4.30;99.90
37356;DHT22;48747;50.250;18.848;2022-11-20T02:27:50;-4.30;99.90
37356;DHT22;48747;50.250;18.848;2022-11-20T02:29:57;-4.30;99.90
37356;DHT22;48747;50.250;18.848;2022-11-20T02:32:02;-4.30;99.90
37356;DHT22;48747;50.250;18.848;2022-11-20T02:34:06;-4.30;99.90
37356;DHT22;48747;50.250;18.848;2022-11-20T02:36:11;-4.30;99.90
37356;DHT22;48747;50.250;18.848;2022-11-20T02:38:15;-4.40;99.90
37356;DHT22;48747;50.250;18.848;2022-11-20T02:40:19;-4.30;99.90
37356;DHT22;48747;50.250;18.848;2022-11-20T02:42:23;-4.40;99.90
37356;DHT22;48747;50.250;18.848;2022-11-20T02:44:26;-4.40;99.90
37356;DHT22;48747;50.250;18.848;2022-11-20T02:46:30;-4.40;99.90
37356;DHT22;48747;50.250;18.848;2022-11-20T02:48:34;-4.40;99.90
37356;DHT22;48747;50.250;18.848;2022-11-20T02:50:38;-4.40;99.90
37356;DHT22;48747;50.250;18.848;2022-11-20T02:52:47;-4.50;99.90
37356;DHT22;48747;50.250;18.848;2022-11-20T02:54:46;-4.50;99.90
37356;DHT22;48747;50.250;18.848;2022-11-20T02:56:49;-4.50;99.90
37356;DHT22;48747;50.250;18.848;2022-11-20T02:58:52;-4.50;99.90
37356;DHT22;48747;50.250;18.848;2022-11-20T03:00:55;-4.50;99.90
37356;DHT22;48747;50.250;18.848;2022-11-20T03:02:58;-4.50;99.90
37356;DHT22;48747;50.250;18.848;2022-11-20T03:05:01;-4.60;99.90
37356;DHT22;48747;50.250;18.848;2022-11-20T03:07:05;-4.60;99.90
37356;DHT22;48747;50.250;18.848;2022-11-20T03:09:11;-4.70;99.90
37356;DHT22;48747;50.250;18.848;2022-11-20T03:11:14;-4.70;99.90
37356;DHT22;48747;50.250;18.848;2022-11-20T03:13:17;-4.70;99.90
37356;DHT22;48747;50.250;18.848;2022-11-20T03:15:21;-4.70;99.90
37356;DHT22;48747;50.250;18.848;2022-11-20T03:17:25;-4.80;99.90
37356;DHT22;48747;50.250;18.848;2022-11-20T03:19:28;-4.80;99.90
37356;DHT22;48747;50.250;18.848;2022-11-20T03:21:36;-4.90;99.90
37356;DHT22;48747;50.250;18.848;2022-11-20T03:23:39;-4.90;99.90
37356;DHT22;48747;50.250;18.848;2022-11-20T03:25:43;-4.90;99.90
37356;DHT22;48747;50.250;18.848;2022-11-20T03:27:46;-4.90;99.90
37356;DHT22;48747;50.250;18.848;2022-11-20T03:29:49;-4.90;99.90
37356;DHT22;48747;50.250;18.848;2022-11-20T03:31:52;-4.80;99.90
37356;DHT22;48747;50.250;18.848;2022-11-20T03:33:57;-4.80;99.90
37356;DHT22;48747;50.250;18.848;2022-11-20T03:36:03;-4.80;99.90
37356;DHT22;48747;50.250;18.848;2022-11-20T03:38:06;-4.70;99.90
37356;DHT22;48747;50.250;18.848;2022-11-20T03:40:09;-4.70;99.90
37356;DHT22;48747;50.250;18.848;2022-11-20T03:42:13;-4.70;99.90
37356;DHT22;48747;50.250;18.848;2022-11-20T03:44:34;-4.70;99.90
37356;DHT22;48747;50.250;18.848;2022-11-20T03:46:37;-4.70;99.90
37356;DHT22;48747;50.250;18.848;2022-11-20T03:48:42;-4.70;99.90
37356;DHT22;48747;50.250;18.848;2022-11-20T03:50:48;-4.70;99.90
37356;DHT22;48747;50.250;18.848;2022-11-20T03:52:50;-4.70;99.90
37356;DHT22;48747;50.250;18.848;2022-11-20T03:54:53;-4.70;99.90
37356;DHT22;48747;50.250;18.848;2022-11-20T03:56:56;-4.70;99.90
37356;DHT22;48747;50.250;18.848;2022-11-20T03:59:00;-4.60;99.90
37356;DHT22;48747;50.250;18.848;2022-11-20T04:01:11;-4.60;99.90
37356;DHT22;48747;50.250;18.848;2022-11-20T04:03:16;-4.70;99.90
37356;DHT22;48747;50.250;18.848;2022-11-20T04:05:19;-4.70;99.90
37356;DHT22;48747;50.250;18.848;2022-11-20T04:07:22;-4.80;99.90
37356;DHT22;48747;50.250;18.848;2022-11-20T04:09:25;-4.70;99.90
37356;DHT22;48747;50.250;18.848;2022-11-20T04:11:30;-4.80;99.90
37356;DHT22;48747;50.250;18.848;2022-11-20T04:13:33;-4.80;99.90
37356;DHT22;48747;50.250;18.848;2022-11-20T04:15:36;-4.90;99.90
37356;DHT22;48747;50.250;18.848;2022-11-20T04:17:39;-4.90;99.90
37356;DHT22;48747;50.250;18.848;2022-11-20T04:19:44;-4.90;99.90
37356;DHT22;48747;50.250;18.848;2022-11-20T04:21:47;-5.00;99.90
37356;DHT22;48747;50.250;18.848;2022-11-20T04:23:50;-5.00;99.90
37356;DHT22;48747;50.250;18.848;2022-11-20T04:25:54;-5.10;99.90
37356;DHT22;48747;50.250;18.848;2022-11-20T04:28:02;-5.20;99.90
37356;DHT22;48747;50.250;18.848;2022-11-20T04:30:02;-5.20;99.90
37356;DHT22;48747;50.250;18.848;2022-11-20T04:32:05;-5.20;99.90
37356;DHT22;48747;50.250;18.848;2022-11-20T04:34:10;-5.30;99.90
37356;DHT22;48747;50.250;18.848;2022-11-20T04:36:15;-5.30;99.90
37356;DHT22;48747;50.250;18.848;2022-11-20T04:38:18;-5.40;99.90
37356;DHT22;48747;50.250;18.848;2022-11-20T04:40:23;-5.40;99.90
37356;DHT22;48747;50.250;18.848;2022-11-20T04:42:26;-5.50;99.90
37356;DHT22;48747;50.250;18.848;2022-11-20T04:44:32;-5.50;99.90
37356;DHT22;48747;50.250;18.848;2022-11-20T04:46:37;-5.60;99.90
37356;DHT22;48747;50.250;18.848;2022-11-20T04:48:41;-5.60;99.90
37356;DHT22;48747;50.250;18.848;2022-11-20T04:50:44;-5.60;99.90
37356;DHT22;48747;50.250;18.848;2022-11-20T04:52:47;-5.50;99.90
37356;DHT22;48747;50.250;18.848;2022-11-20T04:54:52;-5.50;99.90
37356;DHT22;48747;50.250;18.848;2022-11-20T04:56:55;-5.50;99.90
37356;DHT22;48747;50.250;18.848;2022-11-20T04:59:00;-5.50;99.90
37356;DHT22;48747;50.250;18.848;2022-11-20T05:01:07;-5.50;99.90
37356;DHT22;48747;50.250;18.848;2022-11-20T05:03:11;-5.50;99.90
37356;DHT22;48747;50.250;18.848;2022-11-20T05:05:14;-5.60;99.90
37356;DHT22;48747;50.250;18.848;2022-11-20T05:07:17;-5.60;99.90
37356;DHT22;48747;50.250;18.848;2022-11-20T05:09:22;-5.50;99.90
37356;DHT22;48747;50.250;18.848;2022-11-20T05:11:25;-5.40;99.90
37356;DHT22;48747;50.250;18.848;2022-11-20T05:13:30;-5.30;99.90
37356;DHT22;48747;50.250;18.848;2022-11-20T05:15:33;-5.30;99.90
37356;DHT22;48747;50.250;18.848;2022-11-20T05:17:39;-5.30;99.90
37356;DHT22;48747;50.250;18.848;2022-11-20T05:19:42;-5.30;99.90
37356;DHT22;48747;50.250;18.848;2022-11-20T05:21:45;-5.20;99.90
37356;DHT22;48747;50.250;18.848;2022-11-20T05:23:48;-5.20;99.90
37356;DHT22;48747;50.250;18.848;2022-11-20T05:25:55;-5.20;99.90
37356;DHT22;48747;50.250;18.848;2022-11-20T05:27:59;-5.10;99.90
37356;DHT22;48747;50.250;18.848;2022-11-20T05:30:02;-5.10;99.90
37356;DHT22;48747;50.250;18.848;2022-11-20T05:32:06;-5.00;99.90
37356;DHT22;48747;50.250;18.848;2022-11-20T05:34:10;-5.10;99.90
37356;DHT22;48747;50.250;18.848;2022-11-20T05:36:21;-5.10;99.90
37356;DHT22;48747;50.250;18.848;2022-11-20T05:38:21;-5.20;99.90
37356;DHT22;48747;50.250;18.848;2022-11-20T05:40:24;-5.20;99.90
37356;DHT22;48747;50.250;18.848;2022-11-20T05:42:31;-5.30;99.90
37356;DHT22;48747;50.250;18.848;2022-11-20T05:44:34;-5.30;99.90
37356;DHT22;48747;50.250;18.848;2022-11-20T05:46:37;-5.30;99.90
37356;DHT22;48747;50.250;18.848;2022-11-20T05:48:41;-5.40;99.90
37356;DHT22;48747;50.250;18.848;2022-11-20T05:50:51;-5.50;99.90
37356;DHT22;48747;50.250;18.848;2022-11-20T05:52:52;-5.60;99.90
37356;DHT22;48747;50.250;18.848;2022-11-20T05:54:57;-5.60;99.90
37356;DHT22;48747;50.250;18.848;2022-11-20T05:57:00;-5.70;99.90
37356;DHT22;48747;50.250;18.848;2022-11-20T05:59:03;-5.70;99.90
37356;DHT22;48747;50.250;18.848;2022-11-20T06:01:12;-5.80;99.90
37356;DHT22;48747;50.250;18.848;2022-11-20T06:03:15;-5.80;99.90
37356;DHT22;48747;50.250;18.848;2022-11-20T06:05:18;-5.80;99.90
37356;DHT22;48747;50.250;18.848;2022-11-20T06:07:21;-5.80;99.90
37356;DHT22;48747;50.250;18.848;2022-11-20T06:09:24;-5.80;99.90
37356;DHT22;48747;50.250;18.848;2022-11-20T06:11:27;-5.80;99.90
37356;DHT22;48747;50.250;18.848;2022-11-20T06:13:30;-5.80;99.90
37356;DHT22;48747;50.250;18.848;2022-11-20T06:15:34;-5.80;99.90
37356;DHT22;48747;50.250;18.848;2022-11-20T06:17:37;-5.80;99.90
37356;DHT22;48747;50.250;18.848;2022-11-20T06:19:40;-5.80;99.90
37356;DHT22;48747;50.250;18.848;2022-11-20T06:21:43;-5.80;99.90
37356;DHT22;48747;50.250;18.848;2022-11-20T06:23:47;-5.80;99.90
37356;DHT22;48747;50.250;18.848;2022-11-20T06:25:50;-5.90;99.90
37356;DHT22;48747;50.250;18.848;2022-11-20T06:27:53;-5.90;99.90
37356;DHT22;48747;50.250;18.848;2022-11-20T06:29:56;-6.00;99.90
37356;DHT22;48747;50.250;18.848;2022-11-20T06:31:59;-6.00;99.90
37356;DHT22;48747;50.250;18.848;2022-11-20T06:34:03;-6.00;99.90
37356;DHT22;48747;50.250;18.848;2022-11-20T06:36:09;-6.00;99.90
37356;DHT22;48747;50.250;18.848;2022-11-20T06:38:13;-6.00;99.90
37356;DHT22;48747;50.250;18.848;2022-11-20T06:40:16;-6.00;99.90
37356;DHT22;48747;50.250;18.848;2022-11-20T06:42:19;-6.00;99.90
37356;DHT22;48747;50.250;18.848;2022-11-20T06:44:22;-5.80;99.90
37356;DHT22;48747;50.250;18.848;2022-11-20T06:46:27;-5.80;99.90
37356;DHT22;48747;50.250;18.848;2022-11-20T06:48:30;-5.60;99.90
37356;DHT22;48747;50.250;18.848;2022-11-20T06:50:39;-5.60;99.90
37356;DHT22;48747;50.250;18.848;2022-11-20T06:52:38;-5.70;99.90
37356;DHT22;48747;50.250;18.848;2022-11-20T06:54:41;-5.70;99.90
37356;DHT22;48747;50.250;18.848;2022-11-20T06:56:48;-5.70;99.90
37356;DHT22;48747;50.250;18.848;2022-11-20T06:58:51;-5.70;99.90
37356;DHT22;48747;50.250;18.848;2022-11-20T07:01:03;-5.60;99.90
37356;DHT22;48747;50.250;18.848;2022-11-20T07:03:11;-5.60;99.90
37356;DHT22;48747;50.250;18.848;2022-11-20T07:05:14;-5.50;99.90
37356;DHT22;48747;50.250;18.848;2022-11-20T07:07:17;-5.50;99.90
37356;DHT22;48747;50.250;18.848;2022-11-20T07:09:20;-5.40;99.90
37356;DHT22;48747;50.250;18.848;2022-11-20T07:11:24;-5.40;99.90
37356;DHT22;48747;50.250;18.848;2022-11-20T07:13:28;-5.30;99.90
37356;DHT22;48747;50.250;18.848;2022-11-20T07:15:31;-5.20;99.90
37356;DHT22;48747;50.250;18.848;2022-11-20T07:17:34;-5.20;99.90
37356;DHT22;48747;50.250;18.848;2022-11-20T07:19:37;-5.10;99.90
37356;DHT22;48747;50.250;18.848;2022-11-20T07:21:40;-5.00;99.90
37356;DHT22;48747;50.250;18.848;2022-11-20T07:23:43;-5.00;99.90
37356;DHT22;48747;50.250;18.848;2022-11-20T07:25:49;-4.90;99.90
37356;DHT22;48747;50.250;18.848;2022-11-20T07:27:53;-4.80;99.90
37356;DHT22;48747;50.250;18.848;2022-11-20T07:29:59;-4.70;99.90
37356;DHT22;48747;50.250;18.848;2022-11-20T07:32:02;-4.70;99.90
37356;DHT22;48747;50.250;18.848;2022-11-20T07:34:09;-4.60;99.90
37356;DHT22;48747;50.250;18.848;2022-11-20T07:36:11;-4.50;99.90
37356;DHT22;48747;50.250;18.848;2022-11-20T07:38:14;-4.40;99.90
37356;DHT22;48747;50.250;18.848;2022-11-20T07:40:18;-4.30;99.90
37356;DHT22;48747;50.250;18.848;2022-11-20T07:42:21;-4.20;99.90
37356;DHT22;48747;50.250;18.848;2022-11-20T07:44:24;-4.10;99.90
37356;DHT22;48747;50.250;18.848;2022-11-20T07:46:27;-4.00;99.90
37356;DHT22;48747;50.250;18.848;2022-11-20T07:48:30;-3.90;99.90
37356;DHT22;48747;50.250;18.848;2022-11-20T07:50:33;-3.80;99.90
37356;DHT22;48747;50.250;18.848;2022-11-20T07:52:36;-3.70;99.90
37356;DHT22;48747;50.250;18.848;2022-11-20T07:54:41;-3.60;99.90
37356;DHT22;48747;50.250;18.848;2022-11-20T07:56:44;-3.50;99.90
37356;DHT22;48747;50.250;18.848;2022-11-20T07:58:47;-3.40;99.90
37356;DHT22;48747;50.250;18.848;2022-11-20T08:00:50;-3.30;99.90
37356;DHT22;48747;50.250;18.848;2022-11-20T08:02:53;-3.10;99.90
37356;DHT22;48747;50.250;18.848;2022-11-20T08:04:56;-3.10;99.90
37356;DHT22;48747;50.250;18.848;2022-11-20T08:06:59;-3.00;99.90
37356;DHT22;48747;50.250;18.848;2022-11-20T08:09:02;-2.90;99.90
37356;DHT22;48747;50.250;18.848;2022-11-20T08:11:06;-2.90;99.90
37356;DHT22;48747;50.250;18.848;2022-11-20T08:13:27;-2.80;99.90
37356;DHT22;48747;50.250;18.848;2022-11-20T08:15:49;-2.70;99.90
37356;DHT22;48747;50.250;18.848;2022-11-20T08:18:05;-2.60;99.90
37356;DHT22;48747;50.250;18.848;2022-11-20T08:20:05;-2.50;99.90
37356;DHT22;48747;50.250;18.848;2022-11-20T08:22:10;-2.40;99.90
37356;DHT22;48747;50.250;18.848;2022-11-20T08:24:13;-2.30;99.90
37356;DHT22;48747;50.250;18.848;2022-11-20T08:26:18;-2.20;99.90
37356;DHT22;48747;50.250;18.848;2022-11-20T08:28:23;-2.20;99.90
37356;DHT22;48747;50.250;18.848;2022-11-20T08:30:26;-2.10;99.90
37356;DHT22;48747;50.250;18.848;2022-11-20T08:32:29;-2.10;99.90
37356;DHT22;48747;50.250;18.848;2022-11-20T08:34:32;-2.20;99.90
37356;DHT22;48747;50.250;18.848;2022-11-20T08:36:36;-2.10;99.90
37356;DHT22;48747;50.250;18.848;2022-11-20T08:38:39;-2.10;99.90
37356;DHT22;48747;50.250;18.848;2022-11-20T08:40:42;-2.10;99.90
37356;DHT22;48747;50.250;18.848;2022-11-20T08:42:50;-2.00;99.90
37356;DHT22;48747;50.250;18.848;2022-11-20T08:44:53;-1.90;99.90
37356;DHT22;48747;50.250;18.848;2022-11-20T08:46:56;-1.80;99.90
37356;DHT22;48747;50.250;18.848;2022-11-20T08:49:19;-1.70;99.90
37356;DHT22;48747;50.250;18.848;2022-11-20T08:51:23;-1.70;99.90
37356;DHT22;48747;50.250;18.848;2022-11-20T08:53:28;-1.70;99.90
37356;DHT22;48747;50.250;18.848;2022-11-20T08:55:33;-1.70;99.90
37356;DHT22;48747;50.250;18.848;2022-11-20T08:57:38;-1.60;99.90
37356;DHT22;48747;50.250;18.848;2022-11-20T08:59:43;-1.60;99.90
37356;DHT22;48747;50.250;18.848;2022-11-20T09:01:51;-1.50;99.90
37356;DHT22;48747;50.250;18.848;2022-11-20T09:03:52;-1.50;99.90
37356;DHT22;48747;50.250;18.848;2022-11-20T09:06:03;-1.40;99.90
37356;DHT22;48747;50.250;18.848;2022-11-20T09:08:10;-1.30;99.90
37356;DHT22;48747;50.250;18.848;2022-11-20T09:10:15;-1.20;99.90
37356;DHT22;48747;50.250;18.848;2022-11-20T09:12:20;-1.20;99.90
37356;DHT22;48747;50.250;18.848;2022-11-20T09:14:26;-1.10;99.90
37356;DHT22;48747;50.250;18.848;2022-11-20T09:16:32;-1.10;99.90
37356;DHT22;48747;50.250;18.848;2022-11-20T09:18:36;-1.10;99.90
37356;DHT22;48747;50.250;18.848;2022-11-20T09:20:40;-1.00;99.90
37356;DHT22;48747;50.250;18.848;2022-11-20T09:22:44;-0.90;99.90
37356;DHT22;48747;50.250;18.848;2022-11-20T09:24:47;-0.90;99.90
37356;DHT22;48747;50.250;18.848;2022-11-20T09:26:51;-0.80;99.90
37356;DHT22;48747;50.250;18.848;2022-11-20T09:28:55;-0.70;99.90
37356;DHT22;48747;50.250;18.848;2022-11-20T09:30:58;-0.60;99.90
37356;DHT22;48747;50.250;18.848;2022-11-20T09:33:03;-0.50;99.90
37356;DHT22;48747;50.250;18.848;2022-11-20T09:35:07;-0.40;99.90
37356;DHT22;48747;50.250;18.848;2022-11-20T09:37:10;-0.40;99.90
37356;DHT22;48747;50.250;18.848;2022-11-20T09:39:14;-0.30;99.90
37356;DHT22;48747;50.250;18.848;2022-11-20T09:46:02;-0.20;99.90
37356;DHT22;48747;50.250;18.848;2022-11-20T09:48:19;-0.20;99.90
37356;DHT22;48747;50.250;18.848;2022-11-20T09:50:45;-0.30;99.90
37356;DHT22;48747;50.250;18.848;2022-11-20T09:55:01;-0.40;99.90
37356;DHT22;48747;50.250;18.848;2022-11-20T09:57:12;-0.40;99.90
37356;DHT22;48747;50.250;18.848;2022-11-20T10:01:39;-0.30;99.90
37356;DHT22;48747;50.250;18.848;2022-11-20T10:03:55;-0.20;99.90
37356;DHT22;48747;50.250;18.848;2022-11-20T10:06:00;-0.10;99.90
37356;DHT22;48747;50.250;18.848;2022-11-20T10:10:36;-0.10;99.90
37356;DHT22;48747;50.250;18.848;2022-11-20T10:13:20;-0.10;99.90
37356;DHT22;48747;50.250;18.848;2022-11-20T10:15:40;-0.10;99.90
37356;DHT22;48747;50.250;18.848;2022-11-20T10:20:06;0.10;99.90
37356;DHT22;48747;50.250;18.848;2022-11-20T10:26:59;0.30;99.90
37356;DHT22;48747;50.250;18.848;2022-11-20T10:32:14;0.50;99.90
37356;DHT22;48747;50.250;18.848;2022-11-20T10:34:21;0.60;99.90
37356;DHT22;48747;50.250;18.848;2022-11-20T10:36:22;0.70;99.90
37356;DHT22;48747;50.250;18.848;2022-11-20T10:38:43;0.80;99.90
37356;DHT22;48747;50.250;18.848;2022-11-20T10:40:57;0.80;99.90
37356;DHT22;48747;50.250;18.848;2022-11-20T10:43:16;0.80;99.90
37356;DHT22;48747;50.250;18.848;2022-11-20T10:47:43;0.70;99.90
37356;DHT22;48747;50.250;18.848;2022-11-20T10:50:11;0.60;99.90
37356;DHT22;48747;50.250;18.848;2022-11-20T11:00:46;0.60;99.90
37356;DHT22;48747;50.250;18.848;2022-11-20T11:02:53;0.70;99.90
37356;DHT22;48747;50.250;18.848;2022-11-20T11:04:57;0.70;99.90
37356;DHT22;48747;50.250;18.848;2022-11-20T11:07:53;0.70;99.90
37356;DHT22;48747;50.250;18.848;2022-11-20T11:09:19;0.80;99.90
37356;DHT22;48747;50.250;18.848;2022-11-20T11:11:25;0.80;99.90
37356;DHT22;48747;50.250;18.848;2022-11-20T11:13:35;0.90;99.90
37356;DHT22;48747;50.250;18.848;2022-11-20T11:15:41;0.90;99.90
37356;DHT22;48747;50.250;18.848;2022-11-20T11:17:48;1.00;99.90
37356;DHT22;48747;50.250;18.848;2022-11-20T11:20:03;1.00;99.90
37356;DHT22;48747;50.250;18.848;2022-11-20T11:22:10;1.00;99.90
37356;DHT22;48747;50.250;18.848;2022-11-20T11:24:28;1.00;99.90
37356;DHT22;48747;50.250;18.848;2022-11-20T11:26:33;0.90;99.90
37356;DHT22;48747;50.250;18.848;2022-11-20T11:28:39;1.00;99.90
37356;DHT22;48747;50.250;18.848;2022-11-20T11:30:44;0.90;99.90
37356;DHT22;48747;50.250;18.848;2022-11-20T11:32:49;0.90;99.90
37356;DHT22;48747;50.250;18.848;2022-11-20T11:35:07;1.00;99.90
37356;DHT22;48747;50.250;18.848;2022-11-20T11:37:17;1.00;99.90
37356;DHT22;48747;50.250;18.848;2022-11-20T11:39:24;1.10;99.90
37356;DHT22;48747;50.250;18.848;2022-11-20T11:41:36;1.10;99.90
37356;DHT22;48747;50.250;18.848;2022-11-20T11:43:37;1.20;99.90
37356;DHT22;48747;50.250;18.848;2022-11-20T11:46:01;1.20;99.90
37356;DHT22;48747;50.250;18.848;2022-11-20T11:48:05;1.10;99.90
37356;DHT22;48747;50.250;18.848;2022-11-20T11:50:17;1.20;99.90
37356;DHT22;48747;50.250;18.848;2022-11-20T11:52:22;1.20;99.90
37356;DHT22;48747;50.250;18.848;2022-11-20T11:54:30;1.30;99.90
37356;DHT22;48747;50.250;18.848;2022-11-20T11:56:37;1.40;99.90
37356;DHT22;48747;50.250;18.848;2022-11-20T11:58:46;1.30;99.90
37356;DHT22;48747;50.250;18.848;2022-11-20T12:00:54;1.40;99.90
37356;DHT22;48747;50.250;18.848;2022-11-20T12:03:16;1.40;99.90
37356;DHT22;48747;50.250;18.848;2022-11-20T12:05:23;1.40;99.90
37356;DHT22;48747;50.250;18.848;2022-11-20T12:07:47;1.50;99.90
37356;DHT22;48747;50.250;18.848;2022-11-20T12:09:54;1.50;99.90
37356;DHT22;48747;50.250;18.848;2022-11-20T12:12:04;1.50;99.90
37356;DHT22;48747;50.250;18.848;2022-11-20T12:14:14;1.60;99.90
37356;DHT22;48747;50.250;18.848;2022-11-20T12:16:18;1.60;99.90
37356;DHT22;48747;50.250;18.848;2022-11-20T12:18:22;1.60;99.90
37356;DHT22;48747;50.250;18.848;2022-11-20T12:20:35;1.60;99.90
37356;DHT22;48747;50.250;18.848;2022-11-20T12:22:48;1.60;99.90
37356;DHT22;48747;50.250;18.848;2022-11-20T12:24:58;1.70;99.90
37356;DHT22;48747;50.250;18.848;2022-11-20T12:29:47;1.80;99.90
37356;DHT22;48747;50.250;18.848;2022-11-20T12:34:32;1.80;99.90
37356;DHT22;48747;50.250;18.848;2022-11-20T12:36:50;1.70;99.90
37356;DHT22;48747;50.250;18.848;2022-11-20T12:39:05;1.70;99.90
37356;DHT22;48747;50.250;18.848;2022-11-20T12:43:19;1.50;99.90
37356;DHT22;48747;50.250;18.848;2022-11-20T12:45:51;1.40;99.90
37356;DHT22;48747;50.250;18.848;2022-11-20T12:52:54;1.30;99.90
37356;DHT22;48747;50.250;18.848;2022-11-20T12:55:21;1.20;99.90
37356;DHT22;48747;50.250;18.848;2022-11-20T13:07:09;1.10;99.90
37356;DHT22;48747;50.250;18.848;2022-11-20T13:09:14;1.10;99.90
37356;DHT22;48747;50.250;18.848;2022-11-20T13:14:03;1.20;99.90
37356;DHT22;48747;50.250;18.848;2022-11-20T13:18:19;1.20;99.90
37356;DHT22;48747;50.250;18.848;2022-11-20T13:20:24;1.20;99.90
37356;DHT22;48747;50.250;18.848;2022-11-20T13:22:46;1.10;99.90
37356;DHT22;48747;50.250;18.848;2022-11-20T13:24:54;1.10;99.90
37356;DHT22;48747;50.250;18.848;2022-11-20T13:29:17;0.90;99.90
37356;DHT22;48747;50.250;18.848;2022-11-20T13:31:30;0.80;99.90
37356;DHT22;48747;50.250;18.848;2022-11-20T13:33:37;0.80;99.90
37356;DHT22;48747;50.250;18.848;2022-11-20T13:35:42;0.80;99.90
37356;DHT22;48747;50.250;18.848;2022-11-20T13:37:59;0.80;99.90
37356;DHT22;48747;50.250;18.848;2022-11-20T13:39:50;0.70;99.90
37356;DHT22;48747;50.250;18.848;2022-11-20T13:44:42;0.70;99.90
37356;DHT22;48747;50.250;18.848;2022-11-20T13:46:46;0.60;99.90
37356;DHT22;48747;50.250;18.848;2022-11-20T13:48:49;0.60;99.90
37356;DHT22;48747;50.250;18.848;2022-11-20T13:55:53;0.70;99.90
37356;DHT22;48747;50.250;18.848;2022-11-20T14:00:26;0.70;99.90
37356;DHT22;48747;50.250;18.848;2022-11-20T14:02:30;0.70;99.90
37356;DHT22;48747;50.250;18.848;2022-11-20T14:04:35;0.80;99.90
37356;DHT22;48747;50.250;18.848;2022-11-20T14:06:45;0.70;99.90
37356;DHT22;48747;50.250;18.848;2022-11-20T14:08:50;0.70;99.90
37356;DHT22;48747;50.250;18.848;2022-11-20T14:11:04;0.70;99.90
37356;DHT22;48747;50.250;18.848;2022-11-20T14:13:17;0.70;99.90
37356;DHT22;48747;50.250;18.848;2022-11-20T14:15:32;0.70;99.90
37356;DHT22;48747;50.250;18.848;2022-11-20T14:17:36;0.60;99.90
37356;DHT22;48747;50.250;18.848;2022-11-20T14:19:41;0.60;99.90